Accueil
METAR-TAF:

METAR-TAF

Aéroports :

Aupaluk, Québec, Canada

latitude: 59-17-48N, longitude: 069-35-59W, altitude: 35 m

Observation

Le bulletin a été fait il y a 1 heure et 6 minutes, à 13:00 UTC
Vent 12 kt de est/nord-est
Température -17°C
Humidité 84%
Pression 1018 hPa
Visibilité: 8.0 km
Ciel couvert à une hauteur de 1000 ft
neige faible

METAR: CYLA 291300Z 06012KT 5SM -SN OVC010 M17/M19 A3005 RMK ST8 VIS NE 15 LAST STFD OBS/NXT 011300Z SLP181

Heure: 09:06 (14:06 UTC)


TAF: absent

Observations et prévisions météorologiques de plus de 4000 aéroports (messages METAR et TAF).

Les stations disponibles sont représentées par des disques jaunes et rouges sur la carte.

Passer la souris dessus pour voir le nom de la station.

Cliquer dessus pour voir les observations et prévisions météorologiques.

Pour changer de carte: cliquez sur les boutons verts avec une croix noire pour zoomer, sur le bouton vert avec un tiret pour effectuer un zoom arrière, ou sur les flèches vertes pour les cartes adjacentes.


METAR-TAF: